Time;durP1;ratioP1;P1;durP2;ratioP2;P2;SDS_P1;SDS_P2;PMS_P1;PMS_P2;Temp;Humidity;BMP_temperature;BMP_pressure;BME280_temperature;BME280_humidity;BME280_pressure;Samples;Min_cycle;Max_cycle;Signal;HPM_P1;HPM_P2
2022/08/13 00:00:59;;;;;;;1.00;0.47;;;24.20;29.80;;;;;;2270237;56;21509;-69
2022/08/13 00:03:27;;;;;;;0.77;0.40;;;24.20;29.90;;;;;;2263428;56;21156;-74
2022/08/13 00:05:54;;;;;;;0.93;0.40;;;24.20;29.90;;;;;;2266984;55;21001;-70
2022/08/13 00:08:25;;;;;;;1.33;0.30;;;24.30;29.90;;;;;;2488119;55;20990;-70
2022/08/13 00:10:51;;;;;;;0.98;0.43;;;24.30;29.90;;;;;;2261783;56;21396;-72
2022/08/13 00:13:18;;;;;;;0.52;0.30;;;24.40;29.90;;;;;;2265951;55;21061;-70
2022/08/13 00:15:45;;;;;;;1.00;0.30;;;24.40;29.90;;;;;;2260798;56;21036;-69
2022/08/13 00:18:16;;;;;;;1.58;0.60;;;24.40;30.00;;;;;;2264510;55;20929;-69
2022/08/13 00:20:49;;;;;;;1.62;0.50;;;24.50;30.00;;;;;;2270953;56;21470;-70
2022/08/13 00:23:21;;;;;;;;;;;24.50;30.00;;;;;;2263900;56;21004;-71
2022/08/13 00:25:54;;;;;;;0.88;0.40;;;24.60;30.00;;;;;;2425016;55;20061;-70
2022/08/13 00:28:28;;;;;;;1.05;0.35;;;24.60;29.90;;;;;;2264962;56;21014;-68
2022/08/13 00:30:55;;;;;;;0.88;0.37;;;24.60;30.00;;;;;;2312967;55;21494;-72
2022/08/13 00:33:25;;;;;;;0.98;0.40;;;24.60;29.90;;;;;;2267625;56;20997;-70
2022/08/13 00:35:52;;;;;;;0.52;0.32;;;24.60;30.00;;;;;;2330465;55;20988;-72
2022/08/13 00:38:22;;;;;;;2.95;0.57;;;24.60;30.00;;;;;;2315175;55;20996;-69
2022/08/13 00:40:53;;;;;;;0.47;0.28;;;24.60;30.00;;;;;;2286275;55;21093;-70
2022/08/13 00:43:20;;;;;;;1.10;0.47;;;24.60;30.00;;;;;;2266258;55;21025;-70
2022/08/13 00:45:48;;;;;;;0.93;0.30;;;24.60;30.00;;;;;;2266411;56;21000;-73
2022/08/13 00:50:59;;;;;;;0.65;0.40;;;24.60;30.00;;;;;;2261525;56;21073;-69
2022/08/13 00:53:27;;;;;;;0.80;0.40;;;24.60;30.00;;;;;;2486517;55;21127;-70
2022/08/13 00:55:55;;;;;;;1.02;0.43;;;24.60;30.00;;;;;;2271662;56;20974;-69
2022/08/13 00:58:22;;;;;;;1.12;0.40;;;24.60;30.00;;;;;;2294594;55;20979;-70
2022/08/13 01:00:50;;;;;;;0.55;0.37;;;24.60;30.00;;;;;;2263840;56;21300;-71
2022/08/13 01:03:18;;;;;;;2.78;0.50;;;24.60;30.00;;;;;;2265970;55;21041;-70
2022/08/13 01:05:46;;;;;;;1.10;0.57;;;24.60;30.00;;;;;;2257668;56;20977;-74
2022/08/13 01:08:19;;;;;;;1.12;0.50;;;24.60;30.00;;;;;;2384253;55;20989;-71
2022/08/13 01:10:49;;;;;;;0.82;0.35;;;24.70;30.10;;;;;;2263052;56;21019;-70
2022/08/13 01:13:34;;;;;;;0.65;0.32;;;24.60;30.00;;;;;;2317707;55;21593;-70
2022/08/13 01:16:05;;;;;;;0.65;0.30;;;24.70;30.10;;;;;;2263977;56;20966;-70
2022/08/13 01:18:31;;;;;;;1.20;0.50;;;24.70;30.00;;;;;;2361304;55;21457;-71
2022/08/13 01:21:00;;;;;;;0.85;0.40;;;24.60;30.00;;;;;;2328555;55;21016;-70
2022/08/13 01:23:28;;;;;;;1.00;0.40;;;24.60;30.00;;;;;;2490486;55;21035;-73
2022/08/13 01:25:59;;;;;;;0.75;0.40;;;24.60;30.00;;;;;;2261947;56;20957;-70
2022/08/13 01:28:28;;;;;;;0.28;0.28;;;24.60;30.00;;;;;;2476804;55;21760;-70
2022/08/13 01:30:57;;;;;;;0.55;0.30;;;24.60;30.00;;;;;;2261678;56;21055;-70
2022/08/13 01:33:24;;;;;;;0.57;0.30;;;24.60;30.00;;;;;;2284505;55;21045;-69
2022/08/13 01:35:50;;;;;;;1.58;0.30;;;24.60;30.00;;;;;;2261847;56;21020;-70
2022/08/13 01:38:19;;;;;;;0.82;0.40;;;24.60;30.00;;;;;;2381601;55;20956;-72
2022/08/13 01:40:48;;;;;;;0.90;0.35;;;24.50;30.00;;;;;;2262941;56;20952;-70
2022/08/13 01:43:15;;;;;;;0.60;0.30;;;24.50;30.00;;;;;;2261738;56;20941;-70
2022/08/13 01:45:43;;;;;;;1.05;0.32;;;24.50;30.00;;;;;;2243817;57;20993;-69
2022/08/13 01:50:54;;;;;;;0.80;0.40;;;24.50;30.00;;;;;;2261231;56;21080;-71
2022/08/13 01:53:21;;;;;;;0.60;0.30;;;24.40;30.00;;;;;;2483136;55;21545;-70
2022/08/13 01:55:54;;;;;;;1.23;0.50;;;24.40;30.00;;;;;;2265058;55;20977;-73
2022/08/13 01:58:22;;;;;;;0.77;0.40;;;24.30;30.00;;;;;;2296034;55;20997;-70
2022/08/13 02:00:54;;;;;;;1.05;0.50;;;24.30;30.10;;;;;;2264088;55;20962;-72
2022/08/13 02:03:22;;;;;;;0.75;0.40;;;24.30;30.20;;;;;;2297202;55;21053;-73
2022/08/13 02:05:48;;;;;;;0.90;0.47;;;24.20;30.30;;;;;;2262860;56;20953;-70
2022/08/13 02:08:20;;;;;;;1.52;0.50;;;24.20;30.40;;;;;;2488712;55;20917;-73
2022/08/13 02:10:47;;;;;;;0.73;0.40;;;24.20;30.60;;;;;;2261881;56;21064;-73
2022/08/13 02:13:16;;;;;;;1.10;0.50;;;24.10;30.60;;;;;;2268351;56;21137;-70
2022/08/13 02:15:44;;;;;;;0.70;0.40;;;24.00;30.90;;;;;;2263691;55;21012;-70
2022/08/13 02:18:14;;;;;;;1.67;0.40;;;24.00;30.90;;;;;;2368100;55;21061;-71
2022/08/13 02:20:44;;;;;;;0.82;0.40;;;24.00;30.90;;;;;;2261306;56;20969;-71
2022/08/13 02:23:15;;;;;;;1.17;0.37;;;23.90;30.90;;;;;;2376152;55;21017;-72
2022/08/13 02:25:43;;;;;;;1.05;0.43;;;23.90;30.90;;;;;;2261005;56;20995;-70
2022/08/13 02:28:11;;;;;;;0.88;0.40;;;23.80;30.80;;;;;;2261205;56;20980;-70
2022/08/13 02:30:37;;;;;;;0.73;0.43;;;23.80;30.90;;;;;;2261938;56;20956;-68
2022/08/13 02:33:06;;;;;;;0.82;0.37;;;23.70;31.00;;;;;;2388111;55;21004;-70
2022/08/13 02:35:47;;;;;;;0.60;0.40;;;23.70;31.10;;;;;;2261317;56;20961;-70
2022/08/13 02:38:18;;;;;;;0.90;0.35;;;23.60;31.30;;;;;;2490737;55;21047;-73
2022/08/13 02:43:30;;;;;;;0.80;0.47;;;23.40;31.00;;;;;;2339246;55;20948;-69
2022/08/13 02:45:58;;;;;;;0.95;0.35;;;23.40;31.00;;;;;;2261407;56;20980;-71
2022/08/13 02:48:26;;;;;;;0.62;0.30;;;23.30;31.00;;;;;;2490263;55;20917;-70
2022/08/13 02:50:55;;;;;;;0.73;0.30;;;23.20;31.10;;;;;;2261407;56;21526;-69
2022/08/13 02:53:22;;;;;;;0.50;0.30;;;23.10;31.10;;;;;;2249556;55;20976;-73
2022/08/13 02:55:48;;;;;;;0.50;0.30;;;23.10;31.20;;;;;;2261670;56;21049;-70
2022/08/13 02:58:16;;;;;;;1.35;0.50;;;23.00;31.30;;;;;;2379320;55;21477;-71
2022/08/13 03:00:47;;;;;;;1.08;0.40;;;22.90;31.40;;;;;;2262735;56;21018;-70
2022/08/13 03:03:22;;;;;;;1.12;0.60;;;22.80;31.40;;;;;;2308496;55;20976;-70
2022/08/13 03:05:48;;;;;;;1.20;0.40;;;22.80;31.50;;;;;;2261298;56;21008;-70
2022/08/13 03:08:15;;;;;;;0.90;0.40;;;22.70;31.50;;;;;;2261606;56;21838;-71
2022/08/13 03:10:41;;;;;;;1.08;0.30;;;22.60;31.60;;;;;;2421036;55;20960;-72
2022/08/13 03:13:16;;;;;;;1.00;0.50;;;22.50;31.60;;;;;;2265506;56;21024;-69
2022/08/13 03:15:44;;;;;;;0.85;0.37;;;22.40;31.80;;;;;;2260895;56;21060;-69
2022/08/13 03:18:11;;;;;;;3.30;0.40;;;22.30;31.80;;;;;;2323988;55;21104;-72
2022/08/13 03:20:39;;;;;;;0.70;0.32;;;22.30;31.90;;;;;;2261833;56;20949;-72
2022/08/13 03:23:07;;;;;;;0.50;0.30;;;22.20;31.90;;;;;;2261627;56;20968;-69
2022/08/13 03:25:34;;;;;;;2.03;0.40;;;22.10;32.50;;;;;;2262028;56;20965;-70
2022/08/13 03:28:01;;;;;;;1.75;0.55;;;22.10;32.00;;;;;;2267770;55;21010;-69
2022/08/13 03:30:28;;;;;;;1.23;0.43;;;22.00;32.10;;;;;;2261299;56;20956;-72
2022/08/13 03:32:54;;;;;;;0.70;0.40;;;21.90;32.10;;;;;;2261982;56;21572;-74
2022/08/13 03:35:22;;;;;;;1.23;0.43;;;21.90;32.20;;;;;;2264461;56;21061;-67
2022/08/13 03:37:50;;;;;;;0.95;0.40;;;21.80;32.30;;;;;;2261814;55;20994;-69
2022/08/13 03:40:16;;;;;;;0.75;0.47;;;21.80;32.50;;;;;;2264593;56;20964;-69
2022/08/13 03:42:45;;;;;;;1.12;0.50;;;21.70;32.50;;;;;;2261565;56;21368;-69
2022/08/13 03:45:11;;;;;;;0.68;0.40;;;21.70;32.60;;;;;;2293291;55;20977;-69
2022/08/13 03:47:38;;;;;;;1.00;0.35;;;21.70;32.70;;;;;;2263355;56;21496;-68
2022/08/13 03:50:08;;;;;;;1.15;0.50;;;21.60;32.70;;;;;;2299697;55;21048;-73
2022/08/13 03:52:36;;;;;;;0.73;0.40;;;21.60;33.00;;;;;;2261726;56;21008;-70
2022/08/13 03:55:21;;;;;;;0.98;0.40;;;21.50;32.90;;;;;;2261274;56;20949;-67
2022/08/13 03:57:51;;;;;;;2.58;0.52;;;21.50;33.00;;;;;;2488514;55;21391;-69
2022/08/13 04:00:22;;;;;;;2.53;0.50;;;21.50;33.10;;;;;;2261600;56;21541;-69
2022/08/13 04:02:52;;;;;;;1.73;0.60;;;21.40;33.10;;;;;;2261672;56;21037;-69
2022/08/13 04:05:18;;;;;;;0.75;0.40;;;21.40;33.20;;;;;;2261497;56;20980;-69
2022/08/13 04:07:50;;;;;;;1.12;0.50;;;21.40;34.00;;;;;;2261462;56;21686;-69
2022/08/13 04:10:17;;;;;;;1.85;0.60;;;21.30;33.50;;;;;;2262269;56;20972;-69
2022/08/13 04:12:45;;;;;;;1.62;0.50;;;21.30;33.60;;;;;;2262541;56;20973;-70
2022/08/13 04:15:11;;;;;;;1.02;0.40;;;21.30;34.40;;;;;;2261375;56;21013;-70
2022/08/13 04:17:40;;;;;;;1.35;0.50;;;21.30;33.90;;;;;;2262161;56;20917;-69
2022/08/13 04:20:10;;;;;;;3.53;0.60;;;21.30;34.00;;;;;;2261416;56;20972;-69
2022/08/13 04:22:39;;;;;;;2.70;0.60;;;21.20;34.00;;;;;;2244136;56;20968;-69
2022/08/13 04:25:07;;;;;;;0.73;0.30;;;21.20;34.00;;;;;;2261886;56;21820;-69
2022/08/13 04:27:34;;;;;;;1.27;0.55;;;21.20;34.00;;;;;;2313266;55;20928;-69
2022/08/13 04:30:01;;;;;;;1.00;0.43;;;21.10;33.90;;;;;;2267259;56;21060;-71
2022/08/13 04:32:27;;;;;;;1.20;0.50;;;21.10;34.00;;;;;;2261431;56;21013;-69
2022/08/13 04:34:54;;;;;;;0.98;0.45;;;21.00;34.00;;;;;;2264321;56;20932;-69
2022/08/13 04:37:22;;;;;;;1.55;0.50;;;21.00;34.20;;;;;;2260313;56;20961;-69
2022/08/13 04:39:52;;;;;;;1.00;0.43;;;21.00;34.30;;;;;;2261699;56;21064;-70
2022/08/13 04:42:18;;;;;;;0.50;0.32;;;20.90;34.40;;;;;;2264025;56;21053;-69
2022/08/13 04:44:47;;;;;;;1.05;0.50;;;20.80;34.20;;;;;;2260249;56;21016;-69
2022/08/13 04:47:14;;;;;;;0.60;0.37;;;20.80;34.30;;;;;;2262040;56;21763;-73
2022/08/13 04:49:45;;;;;;;1.05;0.43;;;20.80;34.40;;;;;;2397085;55;20968;-69
2022/08/13 04:52:18;;;;;;;1.20;0.50;;;20.80;34.50;;;;;;2353548;55;20960;-69
2022/08/13 04:54:47;;;;;;;0.98;0.50;;;20.70;34.80;;;;;;2261453;56;20959;-70
2022/08/13 04:57:16;;;;;;;1.20;0.60;;;20.70;34.70;;;;;;2261797;56;20987;-69
2022/08/13 04:59:42;;;;;;;1.23;0.60;;;20.60;35.00;;;;;;2244610;57;20993;-69
2022/08/13 05:02:09;;;;;;;1.55;0.70;;;20.60;35.10;;;;;;2262676;56;21001;-70
2022/08/13 05:04:35;;;;;;;2.22;0.80;;;20.50;35.40;;;;;;2273253;55;21046;-69
2022/08/13 05:07:02;;;;;;;1.85;0.90;;;20.50;35.60;;;;;;2257708;55;21108;-72
2022/08/13 05:09:29;;;;;;;1.75;0.70;;;20.60;36.00;;;;;;2265275;56;20977;-69
2022/08/13 05:11:56;;;;;;;1.30;0.60;;;20.50;35.90;;;;;;2261430;56;21024;-69
2022/08/13 05:14:22;;;;;;;1.58;0.70;;;20.50;35.90;;;;;;2262131;56;20957;-69
2022/08/13 05:16:49;;;;;;;1.23;0.60;;;20.50;36.00;;;;;;2262616;56;20996;-71
2022/08/13 05:19:15;;;;;;;1.25;0.55;;;20.50;36.00;;;;;;2263907;56;20949;-70
2022/08/13 05:21:45;;;;;;;2.35;0.80;;;20.40;36.60;;;;;;2490230;55;20993;-70
2022/08/13 05:24:11;;;;;;;2.05;0.85;;;20.50;36.50;;;;;;2261735;56;21568;-71
2022/08/13 05:26:38;;;;;;;1.83;0.60;;;20.50;36.30;;;;;;2261393;56;21028;-72
2022/08/13 05:29:05;;;;;;;1.45;0.57;;;20.40;36.20;;;;;;2261842;56;21778;-72
2022/08/13 05:31:34;;;;;;;1.40;0.60;;;20.40;36.40;;;;;;2378559;55;21004;-69
2022/08/13 05:34:03;;;;;;;1.02;0.50;;;20.40;36.50;;;;;;2261538;56;20988;-71
2022/08/13 05:36:30;;;;;;;1.75;0.60;;;20.30;36.50;;;;;;2263207;56;20972;-68
2022/08/13 05:38:58;;;;;;;2.15;0.70;;;20.50;36.70;;;;;;2261689;56;20940;-69
2022/08/13 05:41:28;;;;;;;1.58;0.57;;;20.50;36.70;;;;;;2261585;56;20961;-70
2022/08/13 05:43:55;;;;;;;1.77;0.70;;;20.50;36.90;;;;;;2261561;56;20961;-69
2022/08/13 05:46:24;;;;;;;0.95;0.60;;;20.50;36.80;;;;;;2261698;56;21095;-69
2022/08/13 05:48:58;;;;;;;1.50;0.65;;;20.40;36.70;;;;;;2261586;56;21029;-67
2022/08/13 05:51:29;;;;;;;1.70;0.80;;;20.40;37.00;;;;;;2411467;55;20949;-71
2022/08/13 05:54:01;;;;;;;4.00;0.70;;;20.40;37.30;;;;;;2263968;56;20973;-69
2022/08/13 05:56:30;;;;;;;1.80;0.75;;;20.40;37.60;;;;;;2261162;56;20910;-71
2022/08/13 05:58:56;;;;;;;2.37;0.60;;;20.40;37.60;;;;;;2261328;56;21854;-69
2022/08/13 06:04:10;;;;;;;1.12;0.62;;;20.40;37.70;;;;;;2262197;56;20994;-69
2022/08/13 06:06:36;;;;;;;1.73;0.70;;;20.50;37.90;;;;;;2265591;56;21037;-69
2022/08/13 06:09:05;;;;;;;1.55;0.70;;;20.50;38.10;;;;;;2262061;56;20997;-68
2022/08/13 06:11:32;;;;;;;2.35;0.93;;;20.50;38.50;;;;;;2261849;56;20937;-69
2022/08/13 06:13:58;;;;;;;2.50;1.00;;;20.50;38.40;;;;;;2261879;56;20996;-72
2022/08/13 06:16:28;;;;;;;2.47;0.90;;;20.50;38.40;;;;;;2264151;56;20981;-70
2022/08/13 06:18:56;;;;;;;2.33;1.00;;;20.60;38.60;;;;;;2262267;56;21032;-69
2022/08/13 06:21:23;;;;;;;2.65;0.90;;;20.60;38.70;;;;;;2262107;56;21028;-68
2022/08/13 06:23:51;;;;;;;1.80;0.77;;;20.70;38.70;;;;;;2264298;56;20961;-69
2022/08/13 06:26:21;;;;;;;2.95;0.80;;;20.70;38.90;;;;;;2452895;55;20989;-67
2022/08/13 06:28:49;;;;;;;2.95;0.88;;;20.70;38.80;;;;;;2261791;56;21344;-71
2022/08/13 06:31:25;;;;;;;1.55;0.75;;;20.80;39.10;;;;;;2262164;56;20988;-68
2022/08/13 06:33:52;;;;;;;1.45;0.60;;;20.80;39.00;;;;;;2356276;55;20961;-71
2022/08/13 06:36:19;;;;;;;2.55;0.70;;;20.90;38.90;;;;;;2261574;56;20992;-69
2022/08/13 06:38:49;;;;;;;1.73;0.73;;;20.90;38.90;;;;;;2261541;56;21028;-68
2022/08/13 06:41:20;;;;;;;1.65;0.62;;;21.00;38.90;;;;;;2261972;56;21000;-73
2022/08/13 06:43:48;;;;;;;1.67;0.82;;;21.00;38.90;;;;;;2264489;56;20965;-69
2022/08/13 06:46:16;;;;;;;1.80;0.80;;;21.10;38.90;;;;;;2295317;55;21019;-70
2022/08/13 06:48:43;;;;;;;1.75;0.75;;;21.10;38.90;;;;;;2301372;55;21778;-69
2022/08/13 06:51:12;;;;;;;1.90;0.75;;;21.20;38.90;;;;;;2261905;56;21012;-69
2022/08/13 06:53:41;;;;;;;2.25;0.80;;;21.20;38.90;;;;;;2263849;56;21024;-71
2022/08/13 06:56:12;;;;;;;1.87;0.82;;;21.30;39.10;;;;;;2331433;55;21089;-70
2022/08/13 06:58:42;;;;;;;1.85;0.80;;;21.30;39.20;;;;;;2261718;55;21819;-69
2022/08/13 07:01:09;;;;;;;2.10;0.90;;;21.40;39.20;;;;;;2262593;56;21502;-70
2022/08/13 07:03:40;;;;;;;3.50;1.00;;;21.50;39.70;;;;;;2264389;56;21063;-73
2022/08/13 07:06:25;;;;;;;1.48;0.70;;;21.50;40.40;;;;;;2262086;56;20984;-73
2022/08/13 07:08:54;;;;;;;2.20;0.88;;;21.70;41.00;;;;;;2262391;56;20949;-69
2022/08/13 07:11:22;;;;;;;1.73;0.80;;;21.70;40.20;;;;;;2262083;56;20956;-67
2022/08/13 07:14:01;;;;;;;5.18;0.73;;;21.80;40.20;;;;;;2279527;55;20949;-67
2022/08/13 07:16:32;;;;;;;2.00;0.70;;;21.90;40.50;;;;;;2264568;56;20976;-70
2022/08/13 07:18:59;;;;;;;1.90;0.70;;;22.00;40.40;;;;;;2266101;56;21331;-72
2022/08/13 07:21:27;;;;;;;2.28;0.93;;;22.00;40.10;;;;;;2261465;56;21012;-72
2022/08/13 07:23:56;;;;;;;2.72;0.80;;;22.10;40.80;;;;;;2261184;56;20968;-70
2022/08/13 07:26:26;;;;;;;2.00;0.90;;;22.20;41.30;;;;;;2259620;56;22020;-73
2022/08/13 07:28:53;;;;;;;2.08;0.88;;;22.30;41.60;;;;;;2265743;55;20929;-71
2022/08/13 07:31:25;;;;;;;2.00;0.70;;;22.40;41.60;;;;;;2259319;56;21941;-68
2022/08/13 07:33:54;;;;;;;1.98;0.82;;;22.50;41.30;;;;;;2261675;56;21005;-69
2022/08/13 07:36:23;;;;;;;1.30;0.62;;;22.60;41.10;;;;;;2264465;56;21017;-69
2022/08/13 07:38:51;;;;;;;1.58;0.65;;;22.70;41.00;;;;;;2263503;56;21788;-70
2022/08/13 07:41:22;;;;;;;2.03;0.73;;;22.80;41.00;;;;;;2264402;56;21505;-69
2022/08/13 07:43:48;;;;;;;1.77;0.93;;;22.90;41.00;;;;;;2262063;56;21013;-73
2022/08/13 07:46:18;;;;;;;2.22;0.90;;;23.00;41.00;;;;;;2383848;55;20985;-69
2022/08/13 07:48:51;;;;;;;4.18;0.80;;;23.10;41.00;;;;;;2261872;56;20952;-70
2022/08/13 07:51:21;;;;;;;;;;;23.20;40.90;;;;;;2266162;56;22009;-70
2022/08/13 07:53:56;;;;;;;1.87;0.73;;;23.40;40.90;;;;;;2313831;55;20115;-69
2022/08/13 07:56:31;;;;;;;2.10;0.80;;;23.50;40.70;;;;;;2242697;57;21307;-70
2022/08/13 07:59:00;;;;;;;2.08;0.80;;;23.60;40.50;;;;;;2267068;56;21528;-68
2022/08/13 08:01:48;;;;;;;1.42;0.70;;;23.80;40.70;;;;;;2265653;56;21043;-69
2022/08/13 08:04:16;;;;;;;1.52;0.70;;;23.90;40.90;;;;;;2261795;56;20964;-70
2022/08/13 08:06:44;;;;;;;1.58;0.80;;;24.00;40.50;;;;;;2261750;56;20949;-69
2022/08/13 08:09:16;;;;;;;1.83;0.80;;;24.10;40.40;;;;;;2262390;56;21021;-70
2022/08/13 08:14:28;;;;;;;2.10;0.82;;;24.40;40.50;;;;;;2490180;55;20980;-70
2022/08/13 08:16:55;;;;;;;3.60;1.05;;;24.50;40.30;;;;;;2264599;56;21006;-69
2022/08/13 08:19:22;;;;;;;4.40;1.45;;;24.60;40.30;;;;;;2357640;55;21337;-70
2022/08/13 08:21:49;;;;;;;2.33;0.80;;;24.80;40.30;;;;;;2263892;56;21016;-70
2022/08/13 08:24:18;;;;;;;2.28;0.88;;;24.90;40.20;;;;;;2429977;55;21855;-71
2022/08/13 08:26:47;;;;;;;2.67;1.02;;;25.00;39.90;;;;;;2261812;56;20992;-71
2022/08/13 08:29:14;;;;;;;2.25;0.98;;;25.10;39.60;;;;;;2371195;55;21378;-70
2022/08/13 08:31:44;;;;;;;2.15;0.85;;;25.20;39.50;;;;;;2262999;56;20985;-70
2022/08/13 08:34:11;;;;;;;1.83;0.80;;;25.30;39.40;;;;;;2261210;56;20944;-68
2022/08/13 08:36:42;;;;;;;2.42;0.80;;;25.40;39.60;;;;;;2261761;56;20987;-68
2022/08/13 08:42:35;;;;;;;2.08;0.82;;;25.70;39.30;;;;;;2264627;56;20980;-74
2022/08/13 08:45:04;;;;;;;1.67;0.80;;;25.80;39.00;;;;;;2261579;56;20965;-69
2022/08/13 08:47:32;;;;;;;3.35;0.80;;;25.90;38.80;;;;;;2490966;55;21024;-69
2022/08/13 08:49:59;;;;;;;2.45;0.70;;;26.10;39.10;;;;;;2477084;55;20976;-70
2022/08/13 08:53:19;;;;;;;2.60;1.00;;;26.20;38.60;;;;;;2262110;56;20964;-70
2022/08/13 08:55:48;;;;;;;1.73;0.90;;;26.30;38.40;;;;;;2347013;55;20984;-69
2022/08/13 08:58:15;;;;;;;1.33;0.60;;;26.40;38.80;;;;;;2390406;55;21024;-68
2022/08/13 09:01:00;;;;;;;3.67;0.90;;;26.50;38.70;;;;;;2243843;56;20948;-66
2022/08/13 09:03:27;;;;;;;1.52;0.80;;;26.60;38.50;;;;;;2261744;56;20937;-68
2022/08/13 09:05:55;;;;;;;3.53;0.88;;;26.70;38.30;;;;;;2262140;56;21021;-68
2022/08/13 09:08:24;;;;;;;1.70;0.73;;;26.80;38.00;;;;;;2261827;56;20984;-68
2022/08/13 09:10:52;;;;;;;2.45;0.70;;;26.90;37.90;;;;;;2264627;56;20969;-68
2022/08/13 09:13:21;;;;;;;1.70;0.80;;;27.00;37.70;;;;;;2378016;55;21071;-69
2022/08/13 09:15:50;;;;;;;1.83;0.80;;;27.10;38.10;;;;;;2421163;55;20997;-71
2022/08/13 09:18:18;;;;;;;1.75;0.80;;;27.20;37.50;;;;;;2264245;56;21036;-72
2022/08/13 09:20:47;;;;;;;2.45;1.00;;;27.30;37.50;;;;;;2353461;55;20925;-70
2022/08/13 09:23:15;;;;;;;2.53;0.90;;;27.40;37.30;;;;;;2261590;56;20961;-69
2022/08/13 09:25:48;;;;;;;1.52;0.77;;;27.50;37.40;;;;;;2262036;56;20977;-71
2022/08/13 09:28:23;;;;;;;1.62;0.70;;;27.60;37.20;;;;;;2264127;56;21029;-70
2022/08/13 09:30:52;;;;;;;2.25;0.85;;;27.70;36.90;;;;;;2261300;56;20980;-69
2022/08/13 09:33:23;;;;;;;1.20;0.60;;;27.80;36.70;;;;;;2263254;56;20960;-67
2022/08/13 09:35:52;;;;;;;2.22;0.90;;;27.90;36.80;;;;;;2261395;56;21682;-67
2022/08/13 09:38:21;;;;;;;2.50;0.75;;;28.00;36.80;;;;;;2260495;56;21011;-68
2022/08/13 09:41:27;;;;;;;1.40;0.65;;;28.10;36.60;;;;;;2267371;55;20965;-67
2022/08/13 09:43:57;;;;;;;1.92;0.80;;;28.20;36.40;;;;;;2260456;56;21502;-69
2022/08/13 09:46:23;;;;;;;2.03;0.88;;;28.30;36.40;;;;;;2267840;56;21053;-68
2022/08/13 09:48:51;;;;;;;1.37;0.50;;;28.40;36.20;;;;;;2264672;56;21028;-68
2022/08/13 09:51:18;;;;;;;2.10;0.80;;;28.50;36.00;;;;;;2303149;55;21008;-70
2022/08/13 09:53:46;;;;;;;1.65;0.70;;;28.60;35.70;;;;;;2262051;56;20996;-69
2022/08/13 09:56:17;;;;;;;1.87;0.82;;;28.70;35.60;;;;;;2348268;55;20977;-68
2022/08/13 09:58:50;;;;;;;2.03;0.85;;;28.80;35.50;;;;;;2402520;55;21914;-70
2022/08/13 10:01:17;;;;;;;1.80;0.75;;;28.80;35.10;;;;;;2295699;55;20976;-69
2022/08/13 10:03:48;;;;;;;1.60;0.70;;;28.90;35.00;;;;;;2262134;56;21456;-70
2022/08/13 10:06:18;;;;;;;1.50;0.73;;;29.10;35.00;;;;;;2490933;55;21840;-69
2022/08/13 10:08:46;;;;;;;2.50;0.80;;;29.10;34.80;;;;;;2490438;55;20953;-70
2022/08/13 10:11:14;;;;;;;1.67;0.70;;;29.20;34.70;;;;;;2407522;54;20949;-69
2022/08/13 10:13:44;;;;;;;2.12;1.10;;;29.30;34.80;;;;;;2263713;56;21012;-69
2022/08/13 10:16:11;;;;;;;2.97;0.68;;;29.40;34.50;;;;;;2376248;54;21013;-71
2022/08/13 10:18:38;;;;;;;2.12;0.80;;;29.50;34.40;;;;;;2263381;56;21041;-69
2022/08/13 10:21:04;;;;;;;1.65;0.65;;;29.50;34.20;;;;;;2265818;56;20957;-71
2022/08/13 10:23:31;;;;;;;3.25;0.80;;;29.70;34.20;;;;;;2264894;56;21735;-71
2022/08/13 10:25:58;;;;;;;2.15;0.77;;;29.70;34.00;;;;;;2292059;55;21005;-70
2022/08/13 10:28:28;;;;;;;1.60;0.70;;;29.80;33.70;;;;;;2256663;56;20989;-69
2022/08/13 10:30:55;;;;;;;1.73;0.70;;;29.90;33.50;;;;;;2281755;55;21130;-70
2022/08/13 10:33:22;;;;;;;2.10;0.90;;;30.00;33.30;;;;;;2264342;56;20953;-70
2022/08/13 10:35:53;;;;;;;1.55;0.70;;;30.10;33.00;;;;;;2377000;55;21536;-68
2022/08/13 10:38:26;;;;;;;1.62;0.73;;;30.10;32.70;;;;;;2265079;56;20996;-69
2022/08/13 10:40:53;;;;;;;2.40;0.82;;;30.20;32.50;;;;;;2376898;55;21788;-70
2022/08/13 10:43:21;;;;;;;1.65;0.80;;;30.30;32.40;;;;;;2262352;56;21012;-69
2022/08/13 10:45:56;;;;;;;2.10;0.60;;;30.40;32.20;;;;;;2269219;55;21092;-70
2022/08/13 10:48:27;;;;;;;1.40;0.70;;;30.40;32.10;;;;;;2264269;56;21047;-71
2022/08/13 10:50:54;;;;;;;1.75;0.60;;;30.50;31.90;;;;;;2300417;55;20981;-69
2022/08/13 10:56:11;;;;;;;1.48;0.70;;;30.70;31.90;;;;;;2262335;56;20965;-68
2022/08/13 10:58:39;;;;;;;1.60;0.62;;;30.80;31.70;;;;;;2262139;56;21506;-69
2022/08/13 11:01:10;;;;;;;1.60;0.70;;;30.90;31.90;;;;;;2295708;55;20989;-67
2022/08/13 11:03:37;;;;;;;3.83;0.70;;;31.00;31.80;;;;;;2264700;56;20949;-69
2022/08/13 11:06:06;;;;;;;2.85;0.80;;;31.10;31.60;;;;;;2302654;55;20954;-69
2022/08/13 11:08:38;;;;;;;2.17;0.73;;;31.10;31.30;;;;;;2261164;56;20976;-67
2022/08/13 11:11:06;;;;;;;1.58;0.70;;;31.20;31.10;;;;;;2342379;54;21003;-67
2022/08/13 11:13:33;;;;;;;1.60;0.70;;;31.30;31.50;;;;;;2264505;55;20997;-68
2022/08/13 11:16:02;;;;;;;1.23;0.60;;;31.40;31.20;;;;;;2339301;55;21004;-69
2022/08/13 11:18:31;;;;;;;1.75;0.65;;;31.50;30.80;;;;;;2394798;54;20997;-70
2022/08/13 11:21:02;;;;;;;1.23;0.57;;;31.60;30.50;;;;;;2244102;55;21457;-68
2022/08/13 11:23:30;;;;;;;1.90;0.80;;;31.70;30.10;;;;;;2263452;56;21385;-68
2022/08/13 11:25:57;;;;;;;2.42;0.68;;;31.70;30.00;;;;;;2442130;55;21825;-68
2022/08/13 11:28:23;;;;;;;1.58;0.70;;;31.80;30.00;;;;;;2262630;56;21001;-68
2022/08/13 11:30:50;;;;;;;1.83;0.80;;;31.90;29.90;;;;;;2276228;55;20984;-68
2022/08/13 11:33:18;;;;;;;1.50;0.60;;;31.90;29.60;;;;;;2262323;56;21049;-67
2022/08/13 11:35:44;;;;;;;1.25;0.52;;;32.00;29.40;;;;;;2379096;55;20957;-67
2022/08/13 11:38:13;;;;;;;1.77;0.60;;;32.00;29.40;;;;;;2262478;56;20996;-66
2022/08/13 11:40:43;;;;;;;1.70;0.73;;;32.10;29.50;;;;;;2292892;55;21028;-67
2022/08/13 11:43:10;;;;;;;1.70;0.60;;;32.20;29.60;;;;;;2262243;56;20933;-70
2022/08/13 11:45:36;;;;;;;1.40;0.70;;;32.20;29.00;;;;;;2343985;55;21525;-71
2022/08/13 11:48:07;;;;;;;1.00;0.50;;;32.30;28.90;;;;;;2262295;56;20993;-67
2022/08/13 11:50:34;;;;;;;2.65;0.50;;;32.40;28.90;;;;;;2303274;55;20968;-68
2022/08/13 11:53:00;;;;;;;1.30;0.70;;;32.30;29.10;;;;;;2244870;56;20953;-67
2022/08/13 11:55:26;;;;;;;1.23;0.52;;;32.50;28.90;;;;;;2451840;55;20925;-68
2022/08/13 11:58:03;;;;;;;1.52;0.50;;;32.60;28.60;;;;;;2262152;56;21717;-68
2022/08/13 12:00:29;;;;;;;0.90;0.40;;;32.60;28.40;;;;;;2312230;55;20993;-68
2022/08/13 12:02:55;;;;;;;1.00;0.50;;;32.70;28.40;;;;;;2272138;55;21430;-71
2022/08/13 12:05:25;;;;;;;0.85;0.40;;;32.70;28.10;;;;;;2274031;55;21024;-67
2022/08/13 12:07:52;;;;;;;1.55;0.60;;;32.80;28.10;;;;;;2281535;55;20980;-70
2022/08/13 12:10:18;;;;;;;0.88;0.50;;;32.90;28.00;;;;;;2329276;55;20953;-68
2022/08/13 12:12:58;;;;;;;0.98;0.50;;;32.90;28.10;;;;;;2264003;56;21840;-69
2022/08/13 12:15:25;;;;;;;1.12;0.45;;;33.00;27.90;;;;;;2264236;56;20985;-66
2022/08/13 12:17:54;;;;;;;0.85;0.40;;;33.00;27.50;;;;;;2263821;56;21008;-68
2022/08/13 12:20:22;;;;;;;0.90;0.40;;;33.10;27.50;;;;;;2331997;55;21076;-68
2022/08/13 12:22:53;;;;;;;1.12;0.50;;;33.20;27.30;;;;;;2262778;56;20960;-69
2022/08/13 12:25:20;;;;;;;1.73;0.60;;;33.20;27.20;;;;;;2488611;55;21010;-70
2022/08/13 12:27:47;;;;;;;1.00;0.50;;;33.20;27.30;;;;;;2259720;56;20969;-67
2022/08/13 12:30:14;;;;;;;1.17;0.52;;;33.30;27.10;;;;;;2299553;55;21044;-70
2022/08/13 12:32:41;;;;;;;1.62;0.60;;;33.30;26.70;;;;;;2267899;56;20978;-66
2022/08/13 12:35:09;;;;;;;1.25;0.60;;;33.40;26.70;;;;;;2268454;55;21058;-68
2022/08/13 12:37:39;;;;;;;0.98;0.50;;;33.40;26.50;;;;;;2262169;56;20936;-65
2022/08/13 12:40:06;;;;;;;1.12;0.47;;;33.50;26.40;;;;;;2311457;55;20952;-66
2022/08/13 12:42:33;;;;;;;0.93;0.47;;;33.50;26.70;;;;;;2262246;56;21207;-66
2022/08/13 12:45:00;;;;;;;0.73;0.30;;;33.50;26.60;;;;;;2322816;55;20964;-66
2022/08/13 12:47:30;;;;;;;2.22;0.60;;;33.60;26.70;;;;;;2262006;56;21024;-66
2022/08/13 12:49:56;;;;;;;1.60;0.60;;;33.70;26.70;;;;;;2375141;54;20941;-66
2022/08/13 12:52:23;;;;;;;1.80;0.77;;;33.70;26.70;;;;;;2264304;56;21429;-66
2022/08/13 12:54:50;;;;;;;1.30;0.60;;;33.70;26.50;;;;;;2339222;55;20965;-68
2022/08/13 12:57:17;;;;;;;1.20;0.57;;;33.80;26.40;;;;;;2261544;56;20956;-67
2022/08/13 12:59:43;;;;;;;0.93;0.47;;;33.90;25.90;;;;;;2262437;56;21612;-66
2022/08/13 13:02:11;;;;;;;1.27;0.50;;;33.90;25.90;;;;;;2268302;56;20965;-69
2022/08/13 13:04:43;;;;;;;1.20;0.40;;;33.90;25.80;;;;;;2271086;55;20949;-66
2022/08/13 13:07:20;;;;;;;1.23;0.50;;;34.00;25.90;;;;;;2339293;55;20990;-66
2022/08/13 13:09:46;;;;;;;1.67;0.60;;;34.00;26.00;;;;;;2262173;55;20969;-66
2022/08/13 13:12:12;;;;;;;0.95;0.40;;;34.00;25.90;;;;;;2259414;56;21025;-66
2022/08/13 13:14:39;;;;;;;0.95;0.40;;;34.10;25.90;;;;;;2260234;56;21135;-65
2022/08/13 13:17:05;;;;;;;1.15;0.43;;;34.10;26.10;;;;;;2266906;55;21504;-70